FR-0311 weather

Valmorel Airport
Valmorel , Rhône Alpes, France

Public forecast

Using degrees Celsius for public forecast. Weather courtesy of forecast.io.

METAR (pilot weather report)

Closest report is Chambéry-Savoie Airport, 25.5 nm (47.2 km) WNW. Retrieved 2019/09/21 04:30 UTC (1 hour ago):

LFLB 210430Z AUTO VRB01KT CAVOK 11/09 Q1020 NOSIG

TAF (pilot weather forecast)

Forecast is more than 12 hours old.

Closest forecast is Chambéry-Savoie Airport, 25.5 nm (47.2 km) WNW. Retrieved 2019/09/20 00:21 UTC (1 day ago):

TAF LFLB 202300Z 2100/2124 VRB03KT CAVOK TEMPO 2100/2104 36010KT